sensor_id;sensor_type;location;lat;lon;timestamp;temperature;humidity
4526;DHT22;2275;52.208;8.804;2022-09-17T00:00:34;11.50;66.60
4526;DHT22;2275;52.208;8.804;2022-09-17T00:03:01;11.50;67.80
4526;DHT22;2275;52.208;8.804;2022-09-17T00:05:29;11.50;68.70
4526;DHT22;2275;52.208;8.804;2022-09-17T00:07:56;11.50;69.00
4526;DHT22;2275;52.208;8.804;2022-09-17T00:10:23;11.50;68.50
4526;DHT22;2275;52.208;8.804;2022-09-17T00:12:50;11.60;68.80
4526;DHT22;2275;52.208;8.804;2022-09-17T00:15:18;11.60;70.30
4526;DHT22;2275;52.208;8.804;2022-09-17T00:17:46;11.60;66.80
4526;DHT22;2275;52.208;8.804;2022-09-17T00:20:14;11.60;71.30
4526;DHT22;2275;52.208;8.804;2022-09-17T00:22:41;11.60;71.50
4526;DHT22;2275;52.208;8.804;2022-09-17T00:25:09;11.60;72.00
4526;DHT22;2275;52.208;8.804;2022-09-17T00:27:37;11.50;68.10
4526;DHT22;2275;52.208;8.804;2022-09-17T00:30:05;11.60;72.30
4526;DHT22;2275;52.208;8.804;2022-09-17T00:32:32;11.60;72.50
4526;DHT22;2275;52.208;8.804;2022-09-17T00:34:59;11.60;73.20
4526;DHT22;2275;52.208;8.804;2022-09-17T00:37:26;11.60;73.00
4526;DHT22;2275;52.208;8.804;2022-09-17T00:39:53;11.60;74.10
4526;DHT22;2275;52.208;8.804;2022-09-17T00:42:20;11.60;73.40
4526;DHT22;2275;52.208;8.804;2022-09-17T00:44:49;11.50;72.10
4526;DHT22;2275;52.208;8.804;2022-09-17T00:47:28;11.60;72.20
4526;DHT22;2275;52.208;8.804;2022-09-17T00:50:01;11.60;72.30
4526;DHT22;2275;52.208;8.804;2022-09-17T00:52:30;11.60;71.80
4526;DHT22;2275;52.208;8.804;2022-09-17T00:54:59;11.60;70.90
4526;DHT22;2275;52.208;8.804;2022-09-17T00:57:24;11.60;71.40
4526;DHT22;2275;52.208;8.804;2022-09-17T00:59:51;11.60;71.00
4526;DHT22;2275;52.208;8.804;2022-09-17T01:02:19;11.60;71.10
4526;DHT22;2275;52.208;8.804;2022-09-17T01:04:46;11.60;71.30
4526;DHT22;2275;52.208;8.804;2022-09-17T01:07:55;11.70;71.20
4526;DHT22;2275;52.208;8.804;2022-09-17T01:10:14;11.70;71.10
4526;DHT22;2275;52.208;8.804;2022-09-17T01:12:46;11.60;69.60
4526;DHT22;2275;52.208;8.804;2022-09-17T01:15:33;11.60;70.00
4526;DHT22;2275;52.208;8.804;2022-09-17T01:18:05;11.50;69.90
4526;DHT22;2275;52.208;8.804;2022-09-17T01:23:31;11.50;70.10
4526;DHT22;2275;52.208;8.804;2022-09-17T01:26:02;11.50;70.50
4526;DHT22;2275;52.208;8.804;2022-09-17T01:28:31;11.60;71.50
4526;DHT22;2275;52.208;8.804;2022-09-17T01:31:00;11.50;71.10
4526;DHT22;2275;52.208;8.804;2022-09-17T01:34:19;11.50;69.90
4526;DHT22;2275;52.208;8.804;2022-09-17T01:37:09;11.50;67.70
4526;DHT22;2275;52.208;8.804;2022-09-17T01:39:20;11.50;69.70
4526;DHT22;2275;52.208;8.804;2022-09-17T01:41:52;11.50;71.30
4526;DHT22;2275;52.208;8.804;2022-09-17T01:44:24;11.50;70.90
4526;DHT22;2275;52.208;8.804;2022-09-17T01:46:54;11.60;70.40
4526;DHT22;2275;52.208;8.804;2022-09-17T01:49:20;11.50;69.80
4526;DHT22;2275;52.208;8.804;2022-09-17T01:51:47;11.50;69.60
4526;DHT22;2275;52.208;8.804;2022-09-17T01:54:24;11.50;70.00
4526;DHT22;2275;52.208;8.804;2022-09-17T01:56:55;11.40;70.20
4526;DHT22;2275;52.208;8.804;2022-09-17T01:59:39;11.40;70.80
4526;DHT22;2275;52.208;8.804;2022-09-17T02:02:10;11.40;71.80
4526;DHT22;2275;52.208;8.804;2022-09-17T02:04:37;11.40;70.70
4526;DHT22;2275;52.208;8.804;2022-09-17T02:07:05;11.40;70.40
4526;DHT22;2275;52.208;8.804;2022-09-17T02:09:40;11.40;69.90
4526;DHT22;2275;52.208;8.804;2022-09-17T02:12:09;11.40;70.00
4526;DHT22;2275;52.208;8.804;2022-09-17T02:14:38;11.40;68.20
4526;DHT22;2275;52.208;8.804;2022-09-17T02:17:07;11.40;69.40
4526;DHT22;2275;52.208;8.804;2022-09-17T02:19:35;11.30;65.90
4526;DHT22;2275;52.208;8.804;2022-09-17T02:22:11;11.30;64.70
4526;DHT22;2275;52.208;8.804;2022-09-17T02:24:54;11.30;66.90
4526;DHT22;2275;52.208;8.804;2022-09-17T02:27:27;11.30;66.70
4526;DHT22;2275;52.208;8.804;2022-09-17T02:29:51;11.20;66.60
4526;DHT22;2275;52.208;8.804;2022-09-17T02:32:18;11.10;66.70
4526;DHT22;2275;52.208;8.804;2022-09-17T02:34:45;11.10;67.20
4526;DHT22;2275;52.208;8.804;2022-09-17T02:37:12;11.20;69.10
4526;DHT22;2275;52.208;8.804;2022-09-17T02:39:39;11.20;69.50
4526;DHT22;2275;52.208;8.804;2022-09-17T02:42:19;11.20;69.60
4526;DHT22;2275;52.208;8.804;2022-09-17T02:44:53;11.20;69.20
4526;DHT22;2275;52.208;8.804;2022-09-17T02:48:31;11.20;69.80
4526;DHT22;2275;52.208;8.804;2022-09-17T02:50:17;11.20;68.60
4526;DHT22;2275;52.208;8.804;2022-09-17T02:53:30;11.20;68.50
4526;DHT22;2275;52.208;8.804;2022-09-17T02:55:41;11.20;68.70
4526;DHT22;2275;52.208;8.804;2022-09-17T02:58:31;11.10;67.40
4526;DHT22;2275;52.208;8.804;2022-09-17T03:00:56;11.10;68.10
4526;DHT22;2275;52.208;8.804;2022-09-17T03:03:31;11.10;67.80
4526;DHT22;2275;52.208;8.804;2022-09-17T03:05:57;11.10;66.50
4526;DHT22;2275;52.208;8.804;2022-09-17T03:08:35;11.10;67.10
4526;DHT22;2275;52.208;8.804;2022-09-17T03:11:04;11.10;65.90
4526;DHT22;2275;52.208;8.804;2022-09-17T03:13:31;11.10;66.30
4526;DHT22;2275;52.208;8.804;2022-09-17T03:15:58;11.10;67.10
4526;DHT22;2275;52.208;8.804;2022-09-17T03:18:26;11.10;65.60
4526;DHT22;2275;52.208;8.804;2022-09-17T03:20:54;11.10;64.80
4526;DHT22;2275;52.208;8.804;2022-09-17T03:23:21;11.00;64.20
4526;DHT22;2275;52.208;8.804;2022-09-17T03:25:49;11.00;64.50
4526;DHT22;2275;52.208;8.804;2022-09-17T03:28:16;11.00;64.50
4526;DHT22;2275;52.208;8.804;2022-09-17T03:30:45;10.80;62.90
4526;DHT22;2275;52.208;8.804;2022-09-17T03:33:12;10.80;61.30
4526;DHT22;2275;52.208;8.804;2022-09-17T03:35:42;10.70;63.20
4526;DHT22;2275;52.208;8.804;2022-09-17T03:38:10;10.70;62.50
4526;DHT22;2275;52.208;8.804;2022-09-17T03:40:37;10.60;62.30
4526;DHT22;2275;52.208;8.804;2022-09-17T03:43:04;10.50;61.60
4526;DHT22;2275;52.208;8.804;2022-09-17T03:45:31;10.50;62.80
4526;DHT22;2275;52.208;8.804;2022-09-17T03:47:59;10.50;62.70
4526;DHT22;2275;52.208;8.804;2022-09-17T03:50:26;10.50;62.50
4526;DHT22;2275;52.208;8.804;2022-09-17T03:52:53;10.50;60.00
4526;DHT22;2275;52.208;8.804;2022-09-17T03:55:20;10.60;59.10
4526;DHT22;2275;52.208;8.804;2022-09-17T03:57:47;10.60;59.40
4526;DHT22;2275;52.208;8.804;2022-09-17T04:00:14;10.60;58.30
4526;DHT22;2275;52.208;8.804;2022-09-17T04:02:42;10.60;56.10
4526;DHT22;2275;52.208;8.804;2022-09-17T04:05:09;10.70;52.30
4526;DHT22;2275;52.208;8.804;2022-09-17T04:07:36;10.70;55.20
4526;DHT22;2275;52.208;8.804;2022-09-17T04:10:03;10.60;51.70
4526;DHT22;2275;52.208;8.804;2022-09-17T04:12:30;10.60;52.90
4526;DHT22;2275;52.208;8.804;2022-09-17T04:14:57;10.60;51.20
4526;DHT22;2275;52.208;8.804;2022-09-17T04:17:25;10.50;50.50
4526;DHT22;2275;52.208;8.804;2022-09-17T04:19:52;10.50;49.70
4526;DHT22;2275;52.208;8.804;2022-09-17T04:22:19;10.40;48.10
4526;DHT22;2275;52.208;8.804;2022-09-17T04:24:46;10.40;48.60
4526;DHT22;2275;52.208;8.804;2022-09-17T04:27:12;10.30;47.80
4526;DHT22;2275;52.208;8.804;2022-09-17T04:29:39;10.30;48.90
4526;DHT22;2275;52.208;8.804;2022-09-17T04:32:06;10.20;47.80
4526;DHT22;2275;52.208;8.804;2022-09-17T04:34:33;10.10;44.10
4526;DHT22;2275;52.208;8.804;2022-09-17T04:37:00;10.10;46.20
4526;DHT22;2275;52.208;8.804;2022-09-17T04:39:27;10.00;47.00
4526;DHT22;2275;52.208;8.804;2022-09-17T04:41:54;10.10;48.30
4526;DHT22;2275;52.208;8.804;2022-09-17T04:44:21;10.10;46.30
4526;DHT22;2275;52.208;8.804;2022-09-17T04:46:49;10.10;40.80
4526;DHT22;2275;52.208;8.804;2022-09-17T04:49:15;10.10;45.90
4526;DHT22;2275;52.208;8.804;2022-09-17T04:51:43;10.10;43.60
4526;DHT22;2275;52.208;8.804;2022-09-17T04:54:10;10.10;42.90
4526;DHT22;2275;52.208;8.804;2022-09-17T04:56:37;10.10;37.70
4526;DHT22;2275;52.208;8.804;2022-09-17T04:59:04;10.10;39.70
4526;DHT22;2275;52.208;8.804;2022-09-17T05:01:31;10.10;39.30
4526;DHT22;2275;52.208;8.804;2022-09-17T05:03:59;10.00;39.70
4526;DHT22;2275;52.208;8.804;2022-09-17T05:06:26;10.10;44.50
4526;DHT22;2275;52.208;8.804;2022-09-17T05:08:53;10.00;39.60
4526;DHT22;2275;52.208;8.804;2022-09-17T05:11:21;10.00;40.00
4526;DHT22;2275;52.208;8.804;2022-09-17T05:13:49;10.00;41.60
4526;DHT22;2275;52.208;8.804;2022-09-17T05:16:16;10.00;41.30
4526;DHT22;2275;52.208;8.804;2022-09-17T05:18:43;10.00;38.10
4526;DHT22;2275;52.208;8.804;2022-09-17T05:21:11;10.00;39.70
4526;DHT22;2275;52.208;8.804;2022-09-17T05:23:38;9.90;39.30
4526;DHT22;2275;52.208;8.804;2022-09-17T05:26:05;9.80;43.00
4526;DHT22;2275;52.208;8.804;2022-09-17T05:28:32;9.80;41.20
4526;DHT22;2275;52.208;8.804;2022-09-17T05:31:00;9.80;39.10
4526;DHT22;2275;52.208;8.804;2022-09-17T05:33:27;9.80;41.50
4526;DHT22;2275;52.208;8.804;2022-09-17T05:35:53;9.80;41.80
4526;DHT22;2275;52.208;8.804;2022-09-17T05:38:20;9.80;42.60
4526;DHT22;2275;52.208;8.804;2022-09-17T05:40:48;9.80;42.20
4526;DHT22;2275;52.208;8.804;2022-09-17T05:43:14;9.80;41.60
4526;DHT22;2275;52.208;8.804;2022-09-17T05:45:41;9.70;41.00
4526;DHT22;2275;52.208;8.804;2022-09-17T05:48:10;9.80;40.40
4526;DHT22;2275;52.208;8.804;2022-09-17T05:50:37;9.70;40.00
4526;DHT22;2275;52.208;8.804;2022-09-17T05:53:07;9.70;39.70
4526;DHT22;2275;52.208;8.804;2022-09-17T05:55:33;9.80;40.70
4526;DHT22;2275;52.208;8.804;2022-09-17T05:58:07;9.80;39.90
4526;DHT22;2275;52.208;8.804;2022-09-17T06:00:28;9.80;40.40
4526;DHT22;2275;52.208;8.804;2022-09-17T06:02:55;9.80;41.40
4526;DHT22;2275;52.208;8.804;2022-09-17T06:05:22;9.90;43.00
4526;DHT22;2275;52.208;8.804;2022-09-17T06:07:49;9.90;37.70
4526;DHT22;2275;52.208;8.804;2022-09-17T06:10:16;10.00;35.80
4526;DHT22;2275;52.208;8.804;2022-09-17T06:12:43;10.00;32.40
4526;DHT22;2275;52.208;8.804;2022-09-17T06:15:10;9.90;33.00
4526;DHT22;2275;52.208;8.804;2022-09-17T06:17:39;10.10;32.60
4526;DHT22;2275;52.208;8.804;2022-09-17T06:20:06;10.10;32.30
4526;DHT22;2275;52.208;8.804;2022-09-17T06:22:34;10.10;28.20
4526;DHT22;2275;52.208;8.804;2022-09-17T06:25:02;10.10;27.60
4526;DHT22;2275;52.208;8.804;2022-09-17T06:27:30;10.10;29.10
4526;DHT22;2275;52.208;8.804;2022-09-17T06:29:57;10.20;28.60
4526;DHT22;2275;52.208;8.804;2022-09-17T06:32:25;10.20;24.40
4526;DHT22;2275;52.208;8.804;2022-09-17T06:34:52;10.20;24.30
4526;DHT22;2275;52.208;8.804;2022-09-17T06:37:19;10.30;23.90
4526;DHT22;2275;52.208;8.804;2022-09-17T06:39:47;10.30;22.70
4526;DHT22;2275;52.208;8.804;2022-09-17T06:42:14;10.30;21.60
4526;DHT22;2275;52.208;8.804;2022-09-17T06:44:41;10.40;21.40
4526;DHT22;2275;52.208;8.804;2022-09-17T06:47:08;10.40;23.40
4526;DHT22;2275;52.208;8.804;2022-09-17T06:49:35;10.50;17.80
4526;DHT22;2275;52.208;8.804;2022-09-17T06:52:03;10.60;18.40
4526;DHT22;2275;52.208;8.804;2022-09-17T06:54:30;10.70;15.40
4526;DHT22;2275;52.208;8.804;2022-09-17T06:56:57;10.70;11.60
4526;DHT22;2275;52.208;8.804;2022-09-17T06:59:25;10.60;11.70
4526;DHT22;2275;52.208;8.804;2022-09-17T07:01:52;10.60;10.50
4526;DHT22;2275;52.208;8.804;2022-09-17T07:04:19;10.50;9.40
4526;DHT22;2275;52.208;8.804;2022-09-17T07:06:46;10.50;11.10
4526;DHT22;2275;52.208;8.804;2022-09-17T07:09:13;10.60;8.70
4526;DHT22;2275;52.208;8.804;2022-09-17T07:11:40;10.80;9.20
4526;DHT22;2275;52.208;8.804;2022-09-17T07:14:07;10.80;3.40
4526;DHT22;2275;52.208;8.804;2022-09-17T07:16:34;10.80;1.00
4526;DHT22;2275;52.208;8.804;2022-09-17T07:19:02;10.80;4.00
4526;DHT22;2275;52.208;8.804;2022-09-17T07:21:29;10.90;1.80
4526;DHT22;2275;52.208;8.804;2022-09-17T07:23:56;10.90;1.00
4526;DHT22;2275;52.208;8.804;2022-09-17T07:26:23;10.80;1.00
4526;DHT22;2275;52.208;8.804;2022-09-17T07:28:51;10.90;1.00
4526;DHT22;2275;52.208;8.804;2022-09-17T07:31:18;10.90;1.00
4526;DHT22;2275;52.208;8.804;2022-09-17T07:33:45;10.90;1.00
4526;DHT22;2275;52.208;8.804;2022-09-17T07:36:13;10.90;1.00
4526;DHT22;2275;52.208;8.804;2022-09-17T07:38:40;11.00;1.00
4526;DHT22;2275;52.208;8.804;2022-09-17T07:41:11;11.00;1.00
4526;DHT22;2275;52.208;8.804;2022-09-17T07:43:38;11.10;1.00
4526;DHT22;2275;52.208;8.804;2022-09-17T07:46:05;11.10;1.00
4526;DHT22;2275;52.208;8.804;2022-09-17T07:48:33;11.20;1.00
4526;DHT22;2275;52.208;8.804;2022-09-17T07:51:03;11.30;1.00
4526;DHT22;2275;52.208;8.804;2022-09-17T07:53:30;11.40;1.00
4526;DHT22;2275;52.208;8.804;2022-09-17T07:55:58;11.50;1.00
4526;DHT22;2275;52.208;8.804;2022-09-17T07:58:29;11.50;1.00
4526;DHT22;2275;52.208;8.804;2022-09-17T08:01:03;11.50;1.00
4526;DHT22;2275;52.208;8.804;2022-09-17T08:03:30;11.60;1.00
4526;DHT22;2275;52.208;8.804;2022-09-17T08:06:02;11.80;1.00
4526;DHT22;2275;52.208;8.804;2022-09-17T08:08:29;11.90;1.00
4526;DHT22;2275;52.208;8.804;2022-09-17T08:10:58;11.90;1.00
4526;DHT22;2275;52.208;8.804;2022-09-17T08:13:22;11.90;1.00
4526;DHT22;2275;52.208;8.804;2022-09-17T08:15:49;12.10;1.00
4526;DHT22;2275;52.208;8.804;2022-09-17T08:18:16;12.10;1.00
4526;DHT22;2275;52.208;8.804;2022-09-17T08:20:43;12.20;1.00
4526;DHT22;2275;52.208;8.804;2022-09-17T08:23:10;12.20;1.00
4526;DHT22;2275;52.208;8.804;2022-09-17T08:25:37;12.20;1.00
4526;DHT22;2275;52.208;8.804;2022-09-17T08:28:04;12.30;1.00
4526;DHT22;2275;52.208;8.804;2022-09-17T08:30:31;12.40;1.00
4526;DHT22;2275;52.208;8.804;2022-09-17T08:32:58;12.50;1.00
4526;DHT22;2275;52.208;8.804;2022-09-17T08:35:25;12.50;1.00
4526;DHT22;2275;52.208;8.804;2022-09-17T08:37:53;12.50;1.00
4526;DHT22;2275;52.208;8.804;2022-09-17T08:40:20;12.50;1.00
4526;DHT22;2275;52.208;8.804;2022-09-17T08:42:54;12.50;1.00
4526;DHT22;2275;52.208;8.804;2022-09-17T08:45:18;12.60;1.00
4526;DHT22;2275;52.208;8.804;2022-09-17T08:47:45;12.70;1.00
4526;DHT22;2275;52.208;8.804;2022-09-17T08:50:16;12.70;99.90
4526;DHT22;2275;52.208;8.804;2022-09-17T08:52:55;12.80;1.00
4526;DHT22;2275;52.208;8.804;2022-09-17T08:55:34;12.90;99.90
4526;DHT22;2275;52.208;8.804;2022-09-17T08:59:09;13.00;99.90
4526;DHT22;2275;52.208;8.804;2022-09-17T09:00:49;13.20;99.90
4526;DHT22;2275;52.208;8.804;2022-09-17T09:03:37;13.30;1.00
4526;DHT22;2275;52.208;8.804;2022-09-17T09:05:59;13.30;1.00
4526;DHT22;2275;52.208;8.804;2022-09-17T09:08:41;13.40;1.00
4526;DHT22;2275;52.208;8.804;2022-09-17T09:11:20;13.50;1.00
4526;DHT22;2275;52.208;8.804;2022-09-17T09:13:46;13.40;99.90
4526;DHT22;2275;52.208;8.804;2022-09-17T09:16:18;13.40;99.90
4526;DHT22;2275;52.208;8.804;2022-09-17T09:18:44;13.60;1.00
4526;DHT22;2275;52.208;8.804;2022-09-17T09:21:19;13.80;99.90
4526;DHT22;2275;52.208;8.804;2022-09-17T09:23:51;13.90;99.90
4526;DHT22;2275;52.208;8.804;2022-09-17T09:26:17;14.00;99.90
4526;DHT22;2275;52.208;8.804;2022-09-17T09:31:37;14.00;92.60
4526;DHT22;2275;52.208;8.804;2022-09-17T09:34:01;14.10;99.90
4526;DHT22;2275;52.208;8.804;2022-09-17T09:36:29;14.10;99.90
4526;DHT22;2275;52.208;8.804;2022-09-17T09:39:03;14.30;1.00
4526;DHT22;2275;52.208;8.804;2022-09-17T09:41:41;14.30;99.90
4526;DHT22;2275;52.208;8.804;2022-09-17T09:44:08;14.50;1.00
4526;DHT22;2275;52.208;8.804;2022-09-17T09:52:03;18.00;99.90
4526;DHT22;2275;52.208;8.804;2022-09-17T09:54:36;18.70;99.90
4526;DHT22;2275;52.208;8.804;2022-09-17T10:00:20;19.30;99.90
4526;DHT22;2275;52.208;8.804;2022-09-17T10:02:38;19.30;99.90
4526;DHT22;2275;52.208;8.804;2022-09-17T10:05:08;18.70;99.90
4526;DHT22;2275;52.208;8.804;2022-09-17T10:07:42;18.80;99.90
4526;DHT22;2275;52.208;8.804;2022-09-17T10:10:08;19.50;99.90
4526;DHT22;2275;52.208;8.804;2022-09-17T10:12:35;20.20;99.90
4526;DHT22;2275;52.208;8.804;2022-09-17T10:15:22;19.90;98.40
4526;DHT22;2275;52.208;8.804;2022-09-17T10:17:59;19.90;99.90
4526;DHT22;2275;52.208;8.804;2022-09-17T10:20:17;19.10;99.90
4526;DHT22;2275;52.208;8.804;2022-09-17T10:22:44;18.50;99.90
4526;DHT22;2275;52.208;8.804;2022-09-17T10:25:22;18.80;99.90
4526;DHT22;2275;52.208;8.804;2022-09-17T10:27:47;20.00;99.90
4526;DHT22;2275;52.208;8.804;2022-09-17T10:30:15;19.20;98.80
4526;DHT22;2275;52.208;8.804;2022-09-17T10:32:42;17.70;99.90
4526;DHT22;2275;52.208;8.804;2022-09-17T10:35:29;17.10;99.90
4526;DHT22;2275;52.208;8.804;2022-09-17T10:37:56;16.80;99.90
4526;DHT22;2275;52.208;8.804;2022-09-17T10:40:24;17.30;99.90
4526;DHT22;2275;52.208;8.804;2022-09-17T10:43:04;17.60;99.90
4526;DHT22;2275;52.208;8.804;2022-09-17T10:45:23;17.70;99.90
4526;DHT22;2275;52.208;8.804;2022-09-17T10:47:50;18.30;99.90
4526;DHT22;2275;52.208;8.804;2022-09-17T10:50:20;18.40;99.90
4526;DHT22;2275;52.208;8.804;2022-09-17T10:52:47;18.00;99.90
4526;DHT22;2275;52.208;8.804;2022-09-17T10:55:30;17.60;99.90
4526;DHT22;2275;52.208;8.804;2022-09-17T10:58:40;17.30;99.90
4526;DHT22;2275;52.208;8.804;2022-09-17T11:01:01;17.00;99.90
4526;DHT22;2275;52.208;8.804;2022-09-17T11:06:19;16.70;99.90
4526;DHT22;2275;52.208;8.804;2022-09-17T11:08:56;16.90;99.90
4526;DHT22;2275;52.208;8.804;2022-09-17T11:14:30;16.20;99.90
4526;DHT22;2275;52.208;8.804;2022-09-17T11:17:02;16.70;99.90
4526;DHT22;2275;52.208;8.804;2022-09-17T11:19:34;16.70;99.90
4526;DHT22;2275;52.208;8.804;2022-09-17T11:22:03;16.50;99.90
4526;DHT22;2275;52.208;8.804;2022-09-17T11:27:24;16.60;99.90
4526;DHT22;2275;52.208;8.804;2022-09-17T11:30:04;16.40;99.90
4526;DHT22;2275;52.208;8.804;2022-09-17T11:32:40;16.00;99.90
4526;DHT22;2275;52.208;8.804;2022-09-17T11:35:26;15.80;99.90
4526;DHT22;2275;52.208;8.804;2022-09-17T11:38:00;15.70;99.90
4526;DHT22;2275;52.208;8.804;2022-09-17T11:41:02;15.70;99.90
4526;DHT22;2275;52.208;8.804;2022-09-17T11:43:16;15.70;99.90
4526;DHT22;2275;52.208;8.804;2022-09-17T11:45:46;15.80;99.90
4526;DHT22;2275;52.208;8.804;2022-09-17T11:48:14;15.90;99.90
4526;DHT22;2275;52.208;8.804;2022-09-17T11:50:46;16.00;99.90
4526;DHT22;2275;52.208;8.804;2022-09-17T11:53:18;16.10;99.90
4526;DHT22;2275;52.208;8.804;2022-09-17T11:55:47;16.10;99.90
4526;DHT22;2275;52.208;8.804;2022-09-17T11:58:25;15.90;99.90
4526;DHT22;2275;52.208;8.804;2022-09-17T12:00:43;15.50;99.90
4526;DHT22;2275;52.208;8.804;2022-09-17T12:03:13;15.40;99.90
4526;DHT22;2275;52.208;8.804;2022-09-17T12:05:45;15.50;99.90
4526;DHT22;2275;52.208;8.804;2022-09-17T12:08:33;15.90;99.90
4526;DHT22;2275;52.208;8.804;2022-09-17T12:11:06;16.20;99.90
4526;DHT22;2275;52.208;8.804;2022-09-17T12:13:39;16.50;99.90
4526;DHT22;2275;52.208;8.804;2022-09-17T12:16:15;16.60;99.90
4526;DHT22;2275;52.208;8.804;2022-09-17T12:18:47;16.50;99.90
4526;DHT22;2275;52.208;8.804;2022-09-17T12:21:13;16.70;99.90
4526;DHT22;2275;52.208;8.804;2022-09-17T12:23:42;16.50;99.90
4526;DHT22;2275;52.208;8.804;2022-09-17T12:29:05;15.00;99.90
4526;DHT22;2275;52.208;8.804;2022-09-17T12:31:40;15.00;99.90
4526;DHT22;2275;52.208;8.804;2022-09-17T12:34:17;14.30;99.90
4526;DHT22;2275;52.208;8.804;2022-09-17T12:36:44;14.10;99.90
4526;DHT22;2275;52.208;8.804;2022-09-17T12:39:13;14.10;99.90
4526;DHT22;2275;52.208;8.804;2022-09-17T12:44:38;14.50;99.90
4526;DHT22;2275;52.208;8.804;2022-09-17T12:47:15;15.00;1.00
4526;DHT22;2275;52.208;8.804;2022-09-17T12:49:42;15.30;99.90
4526;DHT22;2275;52.208;8.804;2022-09-17T12:52:13;15.30;99.90
4526;DHT22;2275;52.208;8.804;2022-09-17T12:54:56;15.30;99.90
4526;DHT22;2275;52.208;8.804;2022-09-17T12:57:25;15.10;99.90
4526;DHT22;2275;52.208;8.804;2022-09-17T13:00:04;15.00;99.90
4526;DHT22;2275;52.208;8.804;2022-09-17T13:03:22;15.20;99.90
4526;DHT22;2275;52.208;8.804;2022-09-17T13:05:34;15.70;99.90
4526;DHT22;2275;52.208;8.804;2022-09-17T13:10:50;16.50;99.90
4526;DHT22;2275;52.208;8.804;2022-09-17T13:13:41;16.50;99.90
4526;DHT22;2275;52.208;8.804;2022-09-17T13:16:23;16.70;99.90
4526;DHT22;2275;52.208;8.804;2022-09-17T13:21:29;16.20;99.90
4526;DHT22;2275;52.208;8.804;2022-09-17T13:23:52;15.80;99.90
4526;DHT22;2275;52.208;8.804;2022-09-17T13:26:20;15.80;99.90
4526;DHT22;2275;52.208;8.804;2022-09-17T13:28:49;15.30;99.90
4526;DHT22;2275;52.208;8.804;2022-09-17T13:31:22;14.50;43.50
4526;DHT22;2275;52.208;8.804;2022-09-17T13:33:49;14.20;1.00
4526;DHT22;2275;52.208;8.804;2022-09-17T13:38:54;14.40;99.90
4526;DHT22;2275;52.208;8.804;2022-09-17T13:41:21;14.80;1.00
4526;DHT22;2275;52.208;8.804;2022-09-17T13:43:48;15.00;1.00
4526;DHT22;2275;52.208;8.804;2022-09-17T13:46:16;15.30;1.00
4526;DHT22;2275;52.208;8.804;2022-09-17T13:48:44;15.60;99.90
4526;DHT22;2275;52.208;8.804;2022-09-17T13:53:52;15.90;99.90
4526;DHT22;2275;52.208;8.804;2022-09-17T13:56:28;16.20;99.90
4526;DHT22;2275;52.208;8.804;2022-09-17T13:58:54;16.30;99.90
4526;DHT22;2275;52.208;8.804;2022-09-17T14:04:04;15.60;99.90
4526;DHT22;2275;52.208;8.804;2022-09-17T14:06:47;15.60;99.90
4526;DHT22;2275;52.208;8.804;2022-09-17T14:09:30;14.60;99.90
4526;DHT22;2275;52.208;8.804;2022-09-17T14:11:56;13.90;1.00
4526;DHT22;2275;52.208;8.804;2022-09-17T14:14:38;13.10;1.00
4526;DHT22;2275;52.208;8.804;2022-09-17T14:17:00;12.90;99.90
4526;DHT22;2275;52.208;8.804;2022-09-17T14:19:46;12.90;99.90
4526;DHT22;2275;52.208;8.804;2022-09-17T14:22:14;13.10;99.90
4526;DHT22;2275;52.208;8.804;2022-09-17T14:24:51;13.30;99.90
4526;DHT22;2275;52.208;8.804;2022-09-17T14:30:16;13.40;99.90
4526;DHT22;2275;52.208;8.804;2022-09-17T14:33:07;13.60;99.90
4526;DHT22;2275;52.208;8.804;2022-09-17T14:35:50;13.80;99.90
4526;DHT22;2275;52.208;8.804;2022-09-17T14:41:20;14.30;99.90
4526;DHT22;2275;52.208;8.804;2022-09-17T14:43:53;14.30;99.90
4526;DHT22;2275;52.208;8.804;2022-09-17T14:46:30;13.90;1.00
4526;DHT22;2275;52.208;8.804;2022-09-17T14:51:38;13.10;99.90
4526;DHT22;2275;52.208;8.804;2022-09-17T14:54:24;13.10;99.90
4526;DHT22;2275;52.208;8.804;2022-09-17T14:56:59;13.50;99.90
4526;DHT22;2275;52.208;8.804;2022-09-17T14:59:48;14.00;99.90
4526;DHT22;2275;52.208;8.804;2022-09-17T15:02:26;14.50;99.90
4526;DHT22;2275;52.208;8.804;2022-09-17T15:04:50;14.90;1.00
4526;DHT22;2275;52.208;8.804;2022-09-17T15:07:19;15.20;1.00
4526;DHT22;2275;52.208;8.804;2022-09-17T15:09:47;15.20;99.90
4526;DHT22;2275;52.208;8.804;2022-09-17T15:12:17;15.20;1.00
4526;DHT22;2275;52.208;8.804;2022-09-17T15:14:44;15.10;99.90
4526;DHT22;2275;52.208;8.804;2022-09-17T15:17:13;15.10;99.90
4526;DHT22;2275;52.208;8.804;2022-09-17T15:19:45;15.10;99.90
4526;DHT22;2275;52.208;8.804;2022-09-17T15:22:18;15.10;99.90
4526;DHT22;2275;52.208;8.804;2022-09-17T15:24:53;15.40;99.90
4526;DHT22;2275;52.208;8.804;2022-09-17T15:27:23;15.60;99.90
4526;DHT22;2275;52.208;8.804;2022-09-17T15:29:56;15.60;99.90
4526;DHT22;2275;52.208;8.804;2022-09-17T15:32:21;15.60;99.90
4526;DHT22;2275;52.208;8.804;2022-09-17T15:37:27;15.40;99.90
4526;DHT22;2275;52.208;8.804;2022-09-17T15:39:54;15.60;99.90
4526;DHT22;2275;52.208;8.804;2022-09-17T15:42:22;15.60;99.90
4526;DHT22;2275;52.208;8.804;2022-09-17T15:45:07;15.70;99.90
4526;DHT22;2275;52.208;8.804;2022-09-17T15:47:47;15.90;99.90
4526;DHT22;2275;52.208;8.804;2022-09-17T15:50:29;16.50;99.90
4526;DHT22;2275;52.208;8.804;2022-09-17T15:53:13;16.70;99.90
4526;DHT22;2275;52.208;8.804;2022-09-17T15:55:43;16.60;99.90
4526;DHT22;2275;52.208;8.804;2022-09-17T15:58:18;16.40;99.90
4526;DHT22;2275;52.208;8.804;2022-09-17T16:00:45;15.90;99.90
4526;DHT22;2275;52.208;8.804;2022-09-17T16:05:50;15.50;99.90
4526;DHT22;2275;52.208;8.804;2022-09-17T16:08:19;15.30;99.90
4526;DHT22;2275;52.208;8.804;2022-09-17T16:10:46;15.20;99.90
4526;DHT22;2275;52.208;8.804;2022-09-17T16:13:14;15.40;99.90
4526;DHT22;2275;52.208;8.804;2022-09-17T16:15:42;15.40;99.90
4526;DHT22;2275;52.208;8.804;2022-09-17T16:18:13;15.30;99.90
4526;DHT22;2275;52.208;8.804;2022-09-17T16:20:40;15.20;99.90
4526;DHT22;2275;52.208;8.804;2022-09-17T16:23:07;15.10;99.90
4526;DHT22;2275;52.208;8.804;2022-09-17T16:25:34;14.90;99.90
4526;DHT22;2275;52.208;8.804;2022-09-17T16:28:03;14.90;99.90
4526;DHT22;2275;52.208;8.804;2022-09-17T16:30:29;14.80;99.90
4526;DHT22;2275;52.208;8.804;2022-09-17T16:32:57;14.60;99.90
4526;DHT22;2275;52.208;8.804;2022-09-17T16:35:24;14.50;99.90
4526;DHT22;2275;52.208;8.804;2022-09-17T16:37:51;14.40;99.90
4526;DHT22;2275;52.208;8.804;2022-09-17T16:40:18;14.50;99.90
4526;DHT22;2275;52.208;8.804;2022-09-17T16:42:45;14.50;99.90
4526;DHT22;2275;52.208;8.804;2022-09-17T16:45:12;14.50;99.90
4526;DHT22;2275;52.208;8.804;2022-09-17T16:47:39;14.50;99.90
4526;DHT22;2275;52.208;8.804;2022-09-17T16:50:09;14.50;99.90
4526;DHT22;2275;52.208;8.804;2022-09-17T16:52:36;14.50;99.90
4526;DHT22;2275;52.208;8.804;2022-09-17T16:55:04;14.50;99.90
4526;DHT22;2275;52.208;8.804;2022-09-17T16:57:32;14.50;99.90
4526;DHT22;2275;52.208;8.804;2022-09-17T16:59:58;14.50;99.90
4526;DHT22;2275;52.208;8.804;2022-09-17T17:02:25;14.40;99.90
4526;DHT22;2275;52.208;8.804;2022-09-17T17:04:53;14.30;99.90
4526;DHT22;2275;52.208;8.804;2022-09-17T17:07:19;14.30;99.90
4526;DHT22;2275;52.208;8.804;2022-09-17T17:09:46;14.20;99.90
4526;DHT22;2275;52.208;8.804;2022-09-17T17:12:14;14.10;99.90
4526;DHT22;2275;52.208;8.804;2022-09-17T17:14:40;14.10;99.90
4526;DHT22;2275;52.208;8.804;2022-09-17T17:17:08;14.00;99.90
4526;DHT22;2275;52.208;8.804;2022-09-17T17:19:35;13.90;99.90